SWA401 KMCO-MBPV
Flight info
| Callsign | SWA401 |
|---|---|
| Flight time | 1h 30m |
| Altitude | 35000 |
| Route | DDANY3 BORRD DCT ZFP DCT SOLEI DCT PVN |
| Aircraft | B738/M-SDE2E3GIJ4RWZ/LB1D1 |
Departure
| Time | 2026-05-09 10:32 |
|---|---|
| Airport | Orlando International Airport (KMCO) |
Arrival
| Time | 2026-05-09 12:02 |
|---|---|
| Airport | Providenciales International Airport (MBPV) |
| Time | Latitude | Longitude | Altitude | Speed | Heading |
|---|---|---|---|---|---|
| 2026-05-09 10:28 | 28.41692 | -81.29787 | 88 ft | 0 kts | 179° |
| 2026-05-09 10:28 | 28.41676 | -81.29788 | 88 ft | 4 kts | 182° |
| 2026-05-09 10:28 | 28.41631 | -81.29793 | 88 ft | 8 kts | 178° |
| 2026-05-09 10:28 | 28.41558 | -81.29786 | 87 ft | 12 kts | 178° |
| 2026-05-09 10:29 | 28.41457 | -81.29784 | 87 ft | 16 kts | 176° |
| 2026-05-09 10:29 | 28.41330 | -81.29782 | 85 ft | 20 kts | 178° |
| 2026-05-09 10:29 | 28.41178 | -81.29781 | 84 ft | 22 kts | 180° |
| 2026-05-09 10:29 | 28.41034 | -81.29781 | 83 ft | 19 kts | 181° |
| 2026-05-09 10:30 | 28.40939 | -81.29763 | 82 ft | 11 kts | 130° |
| 2026-05-09 10:30 | 28.40930 | -81.29684 | 82 ft | 9 kts | 90° |
| 2026-05-09 10:30 | 28.40930 | -81.29670 | 82 ft | 0 kts | 90° |
| 2026-05-09 10:31 | 28.40930 | -81.29662 | 82 ft | 2 kts | 91° |
| 2026-05-09 10:31 | 28.40929 | -81.29628 | 82 ft | 6 kts | 91° |
| 2026-05-09 10:31 | 28.40963 | -81.29567 | 82 ft | 13 kts | 13° |
| 2026-05-09 10:31 | 28.41211 | -81.29565 | 85 ft | 68 kts | 0° |
| 2026-05-09 10:32 | 28.41908 | -81.29571 | 88 ft | 131 kts | 0° |
| 2026-05-09 10:32 | 28.42984 | -81.29583 | 289 ft | 165 kts | 360° |
| 2026-05-09 10:32 | 28.44132 | -81.29613 | 901 ft | 171 kts | 2° |
| 2026-05-09 10:32 | 28.45311 | -81.29298 | 1438 ft | 181 kts | 31° |
| 2026-05-09 10:33 | 28.46232 | -81.28261 | 1941 ft | 194 kts | 57° |
| 2026-05-09 10:33 | 28.46998 | -81.26947 | 2490 ft | 208 kts | 57° |
| 2026-05-09 10:33 | 28.47869 | -81.25530 | 2917 ft | 231 kts | 56° |
| 2026-05-09 10:33 | 28.48865 | -81.23988 | 3473 ft | 249 kts | 54° |
| 2026-05-09 10:34 | 28.49913 | -81.22359 | 4120 ft | 264 kts | 57° |
| 2026-05-09 10:34 | 28.51303 | -81.18330 | 4988 ft | 284 kts | 82° |
| 2026-05-09 10:34 | 28.51487 | -81.16111 | 4977 ft | 285 kts | 94° |
| 2026-05-09 10:35 | 28.51077 | -81.13882 | 5688 ft | 290 kts | 111° |
| 2026-05-09 10:35 | 28.50392 | -81.11794 | 6774 ft | 285 kts | 112° |
| 2026-05-09 10:35 | 28.49705 | -81.09641 | 7467 ft | 295 kts | 110° |
| 2026-05-09 10:35 | 28.49084 | -81.07410 | 8259 ft | 300 kts | 109° |
| 2026-05-09 10:36 | 28.48314 | -81.05187 | 8990 ft | 305 kts | 119° |
| 2026-05-09 10:36 | 28.47070 | -81.03277 | 9715 ft | 306 kts | 139° |
| 2026-05-09 10:36 | 28.45418 | -81.01725 | 10399 ft | 312 kts | 147° |
| 2026-05-09 10:36 | 28.43623 | -81.00237 | 10832 ft | 328 kts | 148° |
| 2026-05-09 10:37 | 28.41734 | -80.98656 | 11277 ft | 344 kts | 147° |
| 2026-05-09 10:37 | 28.39785 | -80.96966 | 11681 ft | 360 kts | 146° |
| 2026-05-09 10:37 | 28.37759 | -80.95160 | 12058 ft | 376 kts | 145° |
| 2026-05-09 10:37 | 28.35692 | -80.93290 | 12397 ft | 391 kts | 145° |
| 2026-05-09 10:38 | 28.33525 | -80.91318 | 12893 ft | 401 kts | 145° |
| 2026-05-09 10:38 | 28.31346 | -80.89327 | 13534 ft | 405 kts | 145° |
| 2026-05-09 10:38 | 28.29196 | -80.87229 | 14186 ft | 411 kts | 139° |
| 2026-05-09 10:38 | 28.27379 | -80.84702 | 14814 ft | 421 kts | 125° |
| 2026-05-09 10:39 | 28.26029 | -80.81715 | 15360 ft | 430 kts | 117° |
| 2026-05-09 10:39 | 28.24881 | -80.78577 | 15965 ft | 435 kts | 114° |
| 2026-05-09 10:39 | 28.23799 | -80.75366 | 16562 ft | 440 kts | 113° |
| 2026-05-09 10:39 | 28.22726 | -80.72105 | 17134 ft | 444 kts | 114° |
| 2026-05-09 10:40 | 28.21466 | -80.68897 | 17679 ft | 446 kts | 122° |
| 2026-05-09 10:40 | 28.19613 | -80.66099 | 18207 ft | 441 kts | 140° |
| 2026-05-09 10:40 | 28.17242 | -80.63900 | 18770 ft | 439 kts | 149° |
| 2026-05-09 10:40 | 28.14728 | -80.61947 | 19304 ft | 442 kts | 152° |
| 2026-05-09 10:41 | 28.12137 | -80.60033 | 19911 ft | 444 kts | 152° |
| 2026-05-09 10:41 | 28.09519 | -80.58118 | 20412 ft | 449 kts | 152° |
| 2026-05-09 10:41 | 28.06869 | -80.56170 | 20962 ft | 452 kts | 152° |
| 2026-05-09 10:41 | 28.04249 | -80.54228 | 21492 ft | 456 kts | 152° |
| 2026-05-09 10:42 | 28.01588 | -80.52240 | 21964 ft | 460 kts | 151° |
| 2026-05-09 10:42 | 27.98897 | -80.50215 | 22453 ft | 464 kts | 151° |
| 2026-05-09 10:42 | 27.96194 | -80.48172 | 22955 ft | 467 kts | 151° |
| 2026-05-09 10:42 | 27.93506 | -80.46029 | 23355 ft | 475 kts | 147° |
| 2026-05-09 10:43 | 27.90966 | -80.43650 | 23842 ft | 481 kts | 142° |
| 2026-05-09 10:43 | 27.88517 | -80.41022 | 24274 ft | 487 kts | 139° |
| 2026-05-09 10:43 | 27.86119 | -80.38238 | 24637 ft | 493 kts | 137° |
| 2026-05-09 10:43 | 27.83773 | -80.35384 | 25123 ft | 496 kts | 136° |
| 2026-05-09 10:44 | 27.81458 | -80.32513 | 25558 ft | 499 kts | 137° |
| 2026-05-09 10:44 | 27.79114 | -80.29593 | 25909 ft | 503 kts | 137° |
| 2026-05-09 10:44 | 27.76754 | -80.26661 | 26386 ft | 504 kts | 137° |
| 2026-05-09 10:44 | 27.74381 | -80.23731 | 26717 ft | 508 kts | 137° |
| 2026-05-09 10:45 | 27.71983 | -80.20787 | 27128 ft | 511 kts | 137° |
| 2026-05-09 10:46 | 27.62226 | -80.08931 | 28964 ft | 512 kts | 137° |
| 2026-05-09 10:46 | 27.59802 | -80.05997 | 29449 ft | 512 kts | 137° |
| 2026-05-09 10:46 | 27.57381 | -80.03071 | 29898 ft | 512 kts | 137° |
| 2026-05-09 10:46 | 27.54948 | -80.00133 | 30308 ft | 512 kts | 137° |
| 2026-05-09 10:47 | 27.52498 | -79.97181 | 30731 ft | 512 kts | 137° |
| 2026-05-09 10:47 | 27.50052 | -79.94235 | 31174 ft | 512 kts | 137° |
| 2026-05-09 10:47 | 27.47643 | -79.91335 | 31632 ft | 511 kts | 137° |
| 2026-05-09 10:47 | 27.45194 | -79.88390 | 32035 ft | 511 kts | 137° |
| 2026-05-09 10:48 | 27.42794 | -79.85505 | 32425 ft | 511 kts | 137° |
| 2026-05-09 10:48 | 27.40354 | -79.82573 | 32883 ft | 509 kts | 137° |
| 2026-05-09 10:48 | 27.37933 | -79.79665 | 33362 ft | 508 kts | 137° |
| 2026-05-09 10:48 | 27.35528 | -79.76779 | 33820 ft | 507 kts | 137° |
| 2026-05-09 10:49 | 27.33111 | -79.73881 | 34301 ft | 505 kts | 137° |
| 2026-05-09 10:49 | 27.30719 | -79.71014 | 34662 ft | 506 kts | 137° |
| 2026-05-09 10:49 | 27.28287 | -79.68105 | 34832 ft | 510 kts | 137° |
| 2026-05-09 10:50 | 27.23443 | -79.62312 | 34989 ft | 505 kts | 137° |
| 2026-05-09 10:50 | 27.18623 | -79.56547 | 34994 ft | 504 kts | 137° |
| 2026-05-09 10:51 | 27.13809 | -79.50803 | 34995 ft | 503 kts | 137° |
| 2026-05-09 10:51 | 27.08988 | -79.45062 | 35000 ft | 503 kts | 137° |
| 2026-05-09 10:52 | 27.04194 | -79.39361 | 34998 ft | 502 kts | 137° |
| 2026-05-09 10:52 | 26.99400 | -79.33664 | 34999 ft | 501 kts | 138° |
| 2026-05-09 10:53 | 26.94606 | -79.27977 | 35001 ft | 501 kts | 138° |
| 2026-05-09 10:53 | 26.89833 | -79.22322 | 35000 ft | 500 kts | 137° |
| 2026-05-09 10:54 | 26.85021 | -79.16627 | 35004 ft | 500 kts | 137° |
| 2026-05-09 10:54 | 26.80242 | -79.10978 | 35001 ft | 500 kts | 137° |
| 2026-05-09 10:55 | 26.75441 | -79.05311 | 35002 ft | 498 kts | 137° |
| 2026-05-09 10:55 | 26.70674 | -78.99691 | 35003 ft | 499 kts | 137° |
| 2026-05-09 10:56 | 26.65888 | -78.94057 | 35003 ft | 498 kts | 137° |
| 2026-05-09 10:56 | 26.61099 | -78.88430 | 34999 ft | 499 kts | 137° |
| 2026-05-09 10:57 | 26.56331 | -78.82829 | 34995 ft | 498 kts | 137° |
| 2026-05-09 10:57 | 26.51556 | -78.77226 | 34995 ft | 497 kts | 137° |
| 2026-05-09 10:58 | 26.46927 | -78.71456 | 34995 ft | 498 kts | 134° |
| 2026-05-09 10:58 | 26.42455 | -78.65540 | 35001 ft | 499 kts | 133° |
| 2026-05-09 10:59 | 26.38001 | -78.59622 | 34998 ft | 497 kts | 133° |
| 2026-05-09 10:59 | 26.33505 | -78.53715 | 34998 ft | 498 kts | 133° |
| 2026-05-09 11:00 | 26.29031 | -78.47887 | 34997 ft | 496 kts | 133° |
| 2026-05-09 11:00 | 26.24531 | -78.42049 | 34998 ft | 496 kts | 133° |
| 2026-05-09 11:01 | 26.20020 | -78.36211 | 35001 ft | 495 kts | 133° |
| 2026-05-09 11:01 | 26.15533 | -78.30414 | 35002 ft | 494 kts | 134° |
| 2026-05-09 11:02 | 26.11029 | -78.24600 | 35005 ft | 494 kts | 134° |
| 2026-05-09 11:02 | 26.06553 | -78.18830 | 35003 ft | 495 kts | 134° |
| 2026-05-09 11:03 | 26.02051 | -78.13036 | 35007 ft | 495 kts | 134° |
| 2026-05-09 11:03 | 25.97546 | -78.07242 | 35007 ft | 494 kts | 134° |
| 2026-05-09 11:04 | 25.93053 | -78.01470 | 35008 ft | 492 kts | 133° |
| 2026-05-09 11:04 | 25.88576 | -77.95727 | 35008 ft | 493 kts | 133° |
| 2026-05-09 11:05 | 25.84082 | -77.89971 | 35010 ft | 492 kts | 133° |
| 2026-05-09 11:05 | 25.79613 | -77.84252 | 35010 ft | 490 kts | 133° |
| 2026-05-09 11:06 | 25.75124 | -77.78515 | 35014 ft | 491 kts | 133° |
| 2026-05-09 11:06 | 25.70674 | -77.72835 | 35015 ft | 489 kts | 133° |
| 2026-05-09 11:07 | 25.66209 | -77.67143 | 35015 ft | 489 kts | 133° |
| 2026-05-09 11:07 | 25.61726 | -77.61437 | 35017 ft | 489 kts | 133° |
| 2026-05-09 11:08 | 25.57239 | -77.55730 | 35018 ft | 488 kts | 133° |
| 2026-05-09 11:08 | 25.52798 | -77.50091 | 35021 ft | 489 kts | 133° |
| 2026-05-09 11:09 | 25.48322 | -77.44415 | 35025 ft | 488 kts | 133° |
| 2026-05-09 11:09 | 25.43844 | -77.38742 | 35029 ft | 488 kts | 133° |
| 2026-05-09 11:10 | 25.39373 | -77.33086 | 35029 ft | 487 kts | 134° |
| 2026-05-09 11:10 | 25.34935 | -77.27477 | 35029 ft | 487 kts | 133° |
| 2026-05-09 11:11 | 25.30452 | -77.21819 | 35028 ft | 487 kts | 133° |
| 2026-05-09 11:11 | 25.26015 | -77.16226 | 35028 ft | 486 kts | 133° |
| 2026-05-09 11:12 | 25.21544 | -77.10595 | 35028 ft | 486 kts | 133° |
| 2026-05-09 11:12 | 25.17071 | -77.04969 | 35029 ft | 485 kts | 133° |
| 2026-05-09 11:13 | 25.12608 | -76.99363 | 35028 ft | 485 kts | 133° |
| 2026-05-09 11:13 | 25.08154 | -76.93777 | 35029 ft | 486 kts | 133° |
| 2026-05-09 11:14 | 25.03684 | -76.88176 | 35031 ft | 484 kts | 133° |
| 2026-05-09 11:14 | 24.99228 | -76.82600 | 35030 ft | 483 kts | 133° |
| 2026-05-09 11:15 | 24.94781 | -76.77041 | 35029 ft | 484 kts | 133° |
| 2026-05-09 11:15 | 24.90313 | -76.71463 | 35031 ft | 484 kts | 133° |
| 2026-05-09 11:16 | 24.85849 | -76.65895 | 35029 ft | 485 kts | 133° |
| 2026-05-09 11:16 | 24.81365 | -76.60310 | 35030 ft | 484 kts | 133° |
| 2026-05-09 11:17 | 24.76893 | -76.54744 | 35030 ft | 484 kts | 133° |
| 2026-05-09 11:17 | 24.72426 | -76.49194 | 35030 ft | 484 kts | 133° |
| 2026-05-09 11:18 | 24.67957 | -76.43648 | 35029 ft | 484 kts | 133° |
| 2026-05-09 11:18 | 24.63479 | -76.38096 | 35030 ft | 484 kts | 133° |
| 2026-05-09 11:19 | 24.58992 | -76.32542 | 35030 ft | 484 kts | 133° |
| 2026-05-09 11:19 | 24.54516 | -76.27004 | 35029 ft | 484 kts | 133° |
| 2026-05-09 11:20 | 24.50033 | -76.21467 | 35029 ft | 484 kts | 133° |
| 2026-05-09 11:20 | 24.45564 | -76.15952 | 35028 ft | 485 kts | 133° |
| 2026-05-09 11:21 | 24.41074 | -76.10420 | 35029 ft | 483 kts | 133° |
| 2026-05-09 11:21 | 24.36619 | -76.04934 | 35029 ft | 483 kts | 133° |
| 2026-05-09 11:22 | 24.32117 | -75.99399 | 35029 ft | 485 kts | 133° |
| 2026-05-09 11:22 | 24.27642 | -75.93903 | 35029 ft | 485 kts | 133° |
| 2026-05-09 11:23 | 24.23144 | -75.88384 | 35029 ft | 485 kts | 133° |
| 2026-05-09 11:23 | 24.18636 | -75.82861 | 35029 ft | 485 kts | 133° |
| 2026-05-09 11:24 | 24.14142 | -75.77359 | 35029 ft | 483 kts | 133° |
| 2026-05-09 11:24 | 24.09665 | -75.71886 | 35029 ft | 484 kts | 133° |
| 2026-05-09 11:25 | 24.05180 | -75.66409 | 35029 ft | 484 kts | 132° |
| 2026-05-09 11:25 | 24.00666 | -75.60904 | 35029 ft | 484 kts | 132° |
| 2026-05-09 11:26 | 23.96181 | -75.55439 | 35029 ft | 484 kts | 132° |
| 2026-05-09 11:26 | 23.91648 | -75.49921 | 35028 ft | 484 kts | 132° |
| 2026-05-09 11:27 | 23.87136 | -75.44437 | 35027 ft | 484 kts | 132° |
| 2026-05-09 11:27 | 23.82657 | -75.38998 | 35027 ft | 484 kts | 132° |
| 2026-05-09 11:28 | 23.78136 | -75.33515 | 35027 ft | 484 kts | 133° |
| 2026-05-09 11:28 | 23.73619 | -75.28042 | 35027 ft | 484 kts | 133° |
| 2026-05-09 11:29 | 23.69118 | -75.22594 | 35027 ft | 484 kts | 133° |
| 2026-05-09 11:29 | 23.64620 | -75.17158 | 35026 ft | 483 kts | 133° |
| 2026-05-09 11:30 | 23.60108 | -75.11710 | 35028 ft | 482 kts | 133° |
| 2026-05-09 11:30 | 23.55611 | -75.06286 | 35028 ft | 483 kts | 133° |
| 2026-05-09 11:31 | 23.51100 | -75.00851 | 35029 ft | 482 kts | 132° |
| 2026-05-09 11:31 | 23.46589 | -74.95422 | 35032 ft | 483 kts | 132° |
| 2026-05-09 11:32 | 23.42080 | -74.90002 | 35036 ft | 483 kts | 132° |
| 2026-05-09 11:32 | 23.37552 | -74.84564 | 35036 ft | 482 kts | 132° |
| 2026-05-09 11:33 | 23.33047 | -74.79160 | 35040 ft | 482 kts | 132° |
| 2026-05-09 11:33 | 23.26275 | -74.71049 | 35040 ft | 481 kts | 132° |
| 2026-05-09 11:34 | 23.21754 | -74.65641 | 35038 ft | 482 kts | 133° |
| 2026-05-09 11:34 | 23.17225 | -74.60229 | 35039 ft | 482 kts | 132° |
| 2026-05-09 11:35 | 23.12728 | -74.54860 | 35040 ft | 482 kts | 132° |
| 2026-05-09 11:35 | 23.08210 | -74.49473 | 35046 ft | 482 kts | 132° |
| 2026-05-09 11:36 | 23.03676 | -74.44074 | 35051 ft | 482 kts | 132° |
| 2026-05-09 11:36 | 22.99152 | -74.38691 | 35047 ft | 482 kts | 132° |
| 2026-05-09 11:37 | 22.94635 | -74.33323 | 35048 ft | 483 kts | 133° |
| 2026-05-09 11:37 | 22.90095 | -74.27931 | 35046 ft | 482 kts | 133° |
| 2026-05-09 11:38 | 22.85569 | -74.22563 | 35049 ft | 481 kts | 133° |
| 2026-05-09 11:38 | 22.81021 | -74.17176 | 35045 ft | 482 kts | 133° |
| 2026-05-09 11:39 | 22.76499 | -74.11826 | 35043 ft | 482 kts | 133° |
| 2026-05-09 11:40 | 22.69686 | -74.03773 | 35044 ft | 481 kts | 133° |
| 2026-05-09 11:40 | 22.65159 | -73.98429 | 34812 ft | 477 kts | 133° |
| 2026-05-09 11:40 | 22.62922 | -73.95791 | 34341 ft | 472 kts | 133° |
| 2026-05-09 11:41 | 22.60704 | -73.93178 | 33725 ft | 472 kts | 132° |
| 2026-05-09 11:41 | 22.58489 | -73.90569 | 33014 ft | 473 kts | 132° |
| 2026-05-09 11:41 | 22.56279 | -73.87966 | 32308 ft | 473 kts | 133° |
| 2026-05-09 11:41 | 22.54052 | -73.85344 | 31554 ft | 474 kts | 132° |
| 2026-05-09 11:42 | 22.51806 | -73.82703 | 30860 ft | 474 kts | 132° |
| 2026-05-09 11:42 | 22.49583 | -73.80090 | 30324 ft | 475 kts | 132° |
| 2026-05-09 11:42 | 22.47356 | -73.77473 | 29743 ft | 477 kts | 132° |
| 2026-05-09 11:42 | 22.45121 | -73.74847 | 29137 ft | 474 kts | 132° |
| 2026-05-09 11:43 | 22.42896 | -73.72235 | 28530 ft | 471 kts | 132° |
| 2026-05-09 11:43 | 22.40677 | -73.69633 | 27929 ft | 468 kts | 132° |
| 2026-05-09 11:43 | 22.38480 | -73.67055 | 27316 ft | 465 kts | 132° |
| 2026-05-09 11:43 | 22.36281 | -73.64478 | 26698 ft | 462 kts | 132° |
| 2026-05-09 11:44 | 22.34116 | -73.61942 | 26087 ft | 459 kts | 132° |
| 2026-05-09 11:44 | 22.31963 | -73.59422 | 25475 ft | 455 kts | 132° |
| 2026-05-09 11:44 | 22.29817 | -73.56911 | 24868 ft | 451 kts | 131° |
| 2026-05-09 11:44 | 22.27711 | -73.54447 | 24266 ft | 447 kts | 131° |
| 2026-05-09 11:45 | 22.25600 | -73.51979 | 23662 ft | 443 kts | 131° |
| 2026-05-09 11:45 | 22.23526 | -73.49554 | 23065 ft | 439 kts | 131° |
| 2026-05-09 11:45 | 22.21448 | -73.47127 | 22466 ft | 436 kts | 131° |
| 2026-05-09 11:45 | 22.19413 | -73.44750 | 21884 ft | 432 kts | 131° |
| 2026-05-09 11:46 | 22.17362 | -73.42356 | 21284 ft | 429 kts | 131° |
| 2026-05-09 11:46 | 22.15356 | -73.40016 | 20696 ft | 425 kts | 130° |
| 2026-05-09 11:46 | 22.13362 | -73.37691 | 20097 ft | 422 kts | 130° |
| 2026-05-09 11:46 | 22.11381 | -73.35384 | 19507 ft | 418 kts | 130° |
| 2026-05-09 11:47 | 22.09400 | -73.33074 | 18909 ft | 414 kts | 130° |
| 2026-05-09 11:47 | 22.07455 | -73.30809 | 18336 ft | 409 kts | 130° |
| 2026-05-09 11:47 | 22.05547 | -73.28587 | 17764 ft | 405 kts | 130° |
| 2026-05-09 11:47 | 22.03640 | -73.26364 | 17181 ft | 398 kts | 130° |
| 2026-05-09 11:48 | 22.01786 | -73.24205 | 16611 ft | 391 kts | 130° |
| 2026-05-09 11:48 | 21.99956 | -73.22077 | 16049 ft | 384 kts | 130° |
| 2026-05-09 11:48 | 21.98157 | -73.19985 | 15485 ft | 377 kts | 130° |
| 2026-05-09 11:48 | 21.96381 | -73.17921 | 14935 ft | 369 kts | 130° |
| 2026-05-09 11:49 | 21.94651 | -73.15912 | 14392 ft | 361 kts | 129° |
| 2026-05-09 11:49 | 21.92960 | -73.13948 | 13865 ft | 354 kts | 129° |
| 2026-05-09 11:49 | 21.91302 | -73.12023 | 13351 ft | 347 kts | 129° |
| 2026-05-09 11:49 | 21.89674 | -73.10133 | 12835 ft | 340 kts | 129° |
| 2026-05-09 11:50 | 21.88083 | -73.08285 | 12331 ft | 334 kts | 129° |
| 2026-05-09 11:50 | 21.86507 | -73.06457 | 11826 ft | 328 kts | 129° |
| 2026-05-09 11:50 | 21.84973 | -73.04675 | 11335 ft | 330 kts | 130° |
| 2026-05-09 11:50 | 21.83413 | -73.02838 | 10845 ft | 330 kts | 127° |
| 2026-05-09 11:51 | 21.82115 | -73.00843 | 10529 ft | 313 kts | 114° |
| 2026-05-09 11:51 | 21.81521 | -72.98674 | 10392 ft | 292 kts | 95° |
| 2026-05-09 11:51 | 21.81398 | -72.96570 | 10293 ft | 275 kts | 91° |
| 2026-05-09 11:51 | 21.81328 | -72.94517 | 10190 ft | 274 kts | 91° |
| 2026-05-09 11:52 | 21.81240 | -72.92450 | 9904 ft | 278 kts | 92° |
| 2026-05-09 11:52 | 21.81127 | -72.90389 | 9539 ft | 277 kts | 92° |
| 2026-05-09 11:52 | 21.81001 | -72.88329 | 9205 ft | 274 kts | 93° |
| 2026-05-09 11:52 | 21.80871 | -72.86298 | 8885 ft | 270 kts | 93° |
| 2026-05-09 11:53 | 21.80744 | -72.84296 | 8563 ft | 266 kts | 93° |
| 2026-05-09 11:53 | 21.80620 | -72.82323 | 8250 ft | 261 kts | 93° |
| 2026-05-09 11:53 | 21.80498 | -72.80376 | 7936 ft | 258 kts | 93° |
| 2026-05-09 11:53 | 21.80378 | -72.78464 | 7628 ft | 254 kts | 93° |
| 2026-05-09 11:54 | 21.80260 | -72.76578 | 7322 ft | 250 kts | 93° |
| 2026-05-09 11:54 | 21.80144 | -72.74741 | 7028 ft | 247 kts | 94° |
| 2026-05-09 11:54 | 21.80026 | -72.72867 | 6727 ft | 252 kts | 94° |
| 2026-05-09 11:54 | 21.79907 | -72.70988 | 6418 ft | 252 kts | 94° |
| 2026-05-09 11:55 | 21.79788 | -72.69102 | 6113 ft | 249 kts | 94° |
| 2026-05-09 11:56 | 21.79208 | -72.59998 | 4618 ft | 239 kts | 94° |
| 2026-05-09 11:56 | 21.79094 | -72.58209 | 4324 ft | 237 kts | 94° |
| 2026-05-09 11:56 | 21.78982 | -72.56465 | 4030 ft | 236 kts | 95° |
| 2026-05-09 11:57 | 21.78869 | -72.54706 | 3829 ft | 229 kts | 95° |
| 2026-05-09 11:57 | 21.78762 | -72.53028 | 3647 ft | 223 kts | 95° |
| 2026-05-09 11:57 | 21.78655 | -72.51382 | 3460 ft | 218 kts | 95° |
| 2026-05-09 11:57 | 21.78551 | -72.49762 | 3219 ft | 216 kts | 95° |
| 2026-05-09 11:58 | 21.78447 | -72.48149 | 2984 ft | 213 kts | 95° |
| 2026-05-09 11:58 | 21.78349 | -72.46577 | 2776 ft | 209 kts | 95° |
| 2026-05-09 11:58 | 21.78267 | -72.45041 | 2607 ft | 203 kts | 94° |
| 2026-05-09 11:58 | 21.78201 | -72.43547 | 2461 ft | 195 kts | 94° |
| 2026-05-09 11:59 | 21.78137 | -72.42101 | 2290 ft | 190 kts | 94° |
| 2026-05-09 11:59 | 21.78070 | -72.40707 | 2121 ft | 181 kts | 94° |
| 2026-05-09 11:59 | 21.78010 | -72.39431 | 1959 ft | 163 kts | 95° |
| 2026-05-09 11:59 | 21.77956 | -72.38275 | 1862 ft | 147 kts | 95° |
| 2026-05-09 12:00 | 21.77903 | -72.37172 | 1705 ft | 143 kts | 95° |
| 2026-05-09 12:00 | 21.77850 | -72.36140 | 1498 ft | 135 kts | 95° |
| 2026-05-09 12:00 | 21.77799 | -72.35126 | 1325 ft | 136 kts | 95° |
| 2026-05-09 12:00 | 21.77758 | -72.34106 | 1131 ft | 138 kts | 95° |
| 2026-05-09 12:01 | 21.77714 | -72.33054 | 956 ft | 141 kts | 95° |
| 2026-05-09 12:01 | 21.77667 | -72.32009 | 770 ft | 139 kts | 94° |
| 2026-05-09 12:01 | 21.77618 | -72.30978 | 575 ft | 139 kts | 94° |
| 2026-05-09 12:01 | 21.77551 | -72.29947 | 410 ft | 136 kts | 94° |
| 2026-05-09 12:02 | 21.77486 | -72.28916 | 232 ft | 138 kts | 93° |
| 2026-05-09 12:02 | 21.77430 | -72.27869 | 50 ft | 140 kts | 93° |
| 2026-05-09 12:02 | 21.77380 | -72.26940 | 32 ft | 95 kts | 91° |
| 2026-05-09 12:02 | 21.77352 | -72.26453 | 27 ft | 40 kts | 93° |
| 2026-05-09 12:03 | 21.77336 | -72.26249 | 27 ft | 20 kts | 96° |
| 2026-05-09 12:03 | 21.77331 | -72.26171 | 27 ft | 3 kts | 54° |
| 2026-05-09 12:03 | 21.77344 | -72.26178 | 27 ft | 4 kts | 293° |
| 2026-05-09 12:03 | 21.77347 | -72.26241 | 27 ft | 13 kts | 270° |
| 2026-05-09 12:04 | 21.77351 | -72.26376 | 27 ft | 22 kts | 272° |
| 2026-05-09 12:04 | 21.77368 | -72.26575 | 29 ft | 30 kts | 279° |
| 2026-05-09 12:04 | 21.77376 | -72.26812 | 31 ft | 29 kts | 270° |
| 2026-05-09 12:04 | 21.77385 | -72.27010 | 32 ft | 15 kts | 274° |
| 2026-05-09 12:05 | 21.77431 | -72.27068 | 33 ft | 10 kts | 354° |
| 2026-05-09 12:05 | 21.77492 | -72.27067 | 34 ft | 6 kts | 340° |
| 2026-05-09 12:05 | 21.77511 | -72.27097 | 34 ft | 4 kts | 276° |
| 2026-05-09 12:05 | 21.77520 | -72.27117 | 35 ft | 2 kts | 324° |
| 2026-05-09 12:06 | 21.77542 | -72.27116 | 35 ft | 3 kts | 25° |
| 2026-05-09 12:06 | 21.77557 | -72.27106 | 36 ft | 2 kts | 33° |
| 2026-05-09 12:06 | 21.77567 | -72.27098 | 36 ft | 1 kts | 34° |
| 2026-05-09 12:06 | 21.77572 | -72.27094 | 36 ft | 0 kts | 34° |